Aviation Digital Data Service (ADDS)

Output produced by METARs form (0243 UTC 24 July 2017)
found at http://www.aviationweather.gov/adds/metars/
 
TAF HBBA 232100Z 2400/2506 03004KT CAVOK 
     BECMG2403/2405 VRB03KT 5000 HZ FEW025 SCT100 
     BECMG2408/2410 18012G24KT 8000 FEW030 
     BECMG2416/2418 36004KT CAVOK